createdAt,value
2018-12-10T00:04:31.757Z,4.83
2018-12-10T00:09:34.890Z,3.80
2018-12-10T00:14:38.068Z,4.30
2018-12-10T00:19:41.212Z,4.20
2018-12-10T00:24:44.354Z,3.50
2018-12-10T00:29:47.533Z,2.80
2018-12-10T00:34:50.670Z,2.57
2018-12-10T00:39:53.813Z,2.70
2018-12-10T00:44:57.001Z,2.67
2018-12-10T00:50:00.236Z,2.40
2018-12-10T00:55:03.541Z,2.67
2018-12-10T01:00:06.979Z,2.70
2018-12-10T01:05:10.134Z,2.30
2018-12-10T01:10:13.281Z,2.10
2018-12-10T01:15:16.541Z,2.27
2018-12-10T01:20:19.668Z,2.50
2018-12-10T01:25:22.772Z,2.50
2018-12-10T01:30:25.889Z,2.30
2018-12-10T01:35:29.018Z,2.67
2018-12-10T01:40:32.262Z,2.60
2018-12-10T01:45:35.399Z,2.60
2018-12-10T01:50:38.536Z,2.60
2018-12-10T01:55:41.637Z,2.53
2018-12-10T02:00:44.781Z,2.37
2018-12-10T02:05:47.961Z,2.30
2018-12-10T02:10:51.077Z,3.03
2018-12-10T02:15:54.224Z,3.20
2018-12-10T02:20:57.345Z,3.40
2018-12-10T02:26:00.464Z,3.10
2018-12-10T02:31:03.862Z,3.73
2018-12-10T02:36:07.194Z,4.97
2018-12-10T02:41:10.425Z,5.70
2018-12-10T02:46:13.587Z,6.00
2018-12-10T02:51:16.701Z,6.83
2018-12-10T03:01:41.641Z,6.60
2018-12-10T03:06:44.820Z,6.10
2018-12-10T03:11:47.989Z,6.10
2018-12-10T03:16:51.133Z,6.03
2018-12-10T03:21:54.286Z,5.97
2018-12-10T03:26:57.417Z,6.37
2018-12-10T03:32:00.549Z,5.60
2018-12-10T03:37:03.798Z,5.27
2018-12-10T03:42:06.947Z,5.40
2018-12-10T03:47:10.121Z,6.00
2018-12-10T03:52:13.266Z,5.50
2018-12-10T03:57:16.550Z,5.70
2018-12-10T04:02:19.688Z,5.73
2018-12-10T04:07:22.805Z,5.80
2018-12-10T04:12:25.938Z,4.93
2018-12-10T04:17:29.097Z,5.50
2018-12-10T04:22:32.220Z,4.87
2018-12-10T04:27:35.356Z,5.33
2018-12-10T04:32:38.477Z,4.90
2018-12-10T04:37:41.629Z,5.40
2018-12-10T04:42:44.766Z,5.30
2018-12-10T04:47:49.693Z,5.17
2018-12-10T04:52:53.157Z,5.60
2018-12-10T04:57:56.313Z,5.80
2018-12-10T05:02:59.496Z,5.50
2018-12-10T05:08:02.670Z,5.63
2018-12-10T05:13:05.791Z,6.43
2018-12-10T05:18:08.908Z,6.00
2018-12-10T05:23:12.161Z,4.83
2018-12-10T05:28:15.350Z,5.30
2018-12-10T05:33:18.541Z,5.00
2018-12-10T05:38:21.684Z,5.63
2018-12-10T05:43:24.852Z,4.43
2018-12-10T05:48:27.989Z,5.90
2018-12-10T05:53:31.150Z,4.90
2018-12-10T05:58:34.334Z,4.80
2018-12-10T06:03:37.677Z,4.67
2018-12-10T06:08:40.798Z,4.43
2018-12-10T06:13:44.017Z,5.07
2018-12-10T06:18:47.217Z,4.73
2018-12-10T06:23:50.361Z,4.23
2018-12-10T06:28:53.525Z,4.20
2018-12-10T06:33:56.822Z,3.87
2018-12-10T06:39:00.030Z,3.60
2018-12-10T06:44:03.218Z,2.97
2018-12-10T06:49:06.482Z,3.60
2018-12-10T06:54:09.637Z,4.20
2018-12-10T06:59:12.780Z,3.50
2018-12-10T07:04:15.916Z,3.43
2018-12-10T07:09:19.072Z,3.17
2018-12-10T07:14:22.205Z,2.90
2018-12-10T07:19:25.333Z,3.60
2018-12-10T07:24:28.595Z,3.73
2018-12-10T07:29:31.752Z,3.63
2018-12-10T07:34:35.256Z,3.60
2018-12-10T07:39:38.454Z,3.40
2018-12-10T07:44:41.737Z,4.30
2018-12-10T07:49:45.001Z,4.33
2018-12-10T07:54:48.145Z,4.80
2018-12-10T07:59:51.320Z,5.37
2018-12-10T08:04:54.542Z,4.63
2018-12-10T08:09:57.741Z,5.23
2018-12-10T08:15:00.894Z,5.00
2018-12-10T08:20:04.456Z,6.20
2018-12-10T08:25:07.917Z,5.67
2018-12-10T08:30:11.201Z,6.33
2018-12-10T08:35:14.470Z,6.67
2018-12-10T08:40:17.810Z,7.27
2018-12-10T08:45:21.602Z,6.20
2018-12-10T08:50:25.363Z,6.90
2018-12-10T08:55:28.561Z,7.43
2018-12-10T09:00:31.756Z,6.63
2018-12-10T09:05:34.953Z,7.07
2018-12-10T09:10:38.106Z,6.80
2018-12-10T09:15:41.281Z,6.57
2018-12-10T09:20:44.428Z,6.40
2018-12-10T09:25:47.596Z,7.00
2018-12-10T09:30:50.789Z,6.73
2018-12-10T09:35:53.915Z,7.13
2018-12-10T09:40:57.093Z,10.47
2018-12-10T09:46:00.274Z,13.87
2018-12-10T09:51:03.440Z,9.10
2018-12-10T09:56:06.736Z,6.93
2018-12-10T10:01:09.897Z,6.13
2018-12-10T10:06:13.214Z,6.23
2018-12-10T10:11:16.341Z,6.17
2018-12-10T10:16:19.540Z,6.37
2018-12-10T10:21:22.722Z,6.67
2018-12-10T10:26:25.916Z,5.97
2018-12-10T10:31:29.194Z,6.07
2018-12-10T10:36:32.391Z,4.47
2018-12-10T10:41:35.501Z,5.00
2018-12-10T10:46:38.648Z,4.93
2018-12-10T10:51:43.918Z,6.50
2018-12-10T10:56:47.099Z,5.23
2018-12-10T11:01:59.534Z,6.83
2018-12-10T11:07:02.638Z,6.00
2018-12-10T11:12:05.858Z,5.27
2018-12-10T11:17:09.021Z,6.00
2018-12-10T11:22:12.167Z,6.37
2018-12-10T11:27:15.296Z,6.43
2018-12-10T11:32:18.461Z,5.00
2018-12-10T11:37:21.619Z,5.77
2018-12-10T11:42:24.800Z,5.43
2018-12-10T11:47:27.971Z,5.00
2018-12-10T11:52:31.223Z,6.00
2018-12-10T11:57:35.408Z,5.90
2018-12-10T12:02:38.646Z,5.50
2018-12-10T12:07:41.906Z,5.60
2018-12-10T12:12:45.101Z,6.43
2018-12-10T12:17:48.270Z,5.93
2018-12-10T12:22:51.421Z,6.10
2018-12-10T12:27:54.606Z,4.90
2018-12-10T12:32:57.776Z,6.07
2018-12-10T12:38:00.956Z,6.07
2018-12-10T12:43:08.583Z,5.47
2018-12-10T12:48:09.375Z,7.03
2018-12-10T12:53:13.078Z,6.37
2018-12-10T12:58:16.315Z,5.63
2018-12-10T13:03:19.563Z,5.97
2018-12-10T13:08:30.842Z,5.80
2018-12-10T13:13:27.837Z,5.57
2018-12-10T13:18:31.002Z,5.03
2018-12-10T13:23:34.189Z,4.77
2018-12-10T13:28:37.371Z,4.83
2018-12-10T13:33:40.602Z,4.87
2018-12-10T13:38:43.753Z,3.83
2018-12-10T13:43:46.996Z,5.07
2018-12-10T13:48:50.236Z,4.53
2018-12-10T13:53:53.401Z,4.30
2018-12-10T13:58:56.575Z,4.43
2018-12-10T14:04:01.137Z,3.80
2018-12-10T14:09:08.115Z,4.17
2018-12-10T14:14:11.222Z,4.13
2018-12-10T14:19:14.448Z,3.70
2018-12-10T14:24:17.623Z,4.13
2018-12-10T14:29:20.792Z,3.80
2018-12-10T14:34:24.882Z,4.33
2018-12-10T14:39:28.060Z,5.33
2018-12-10T14:44:31.230Z,6.10
2018-12-10T14:49:34.517Z,4.10
2018-12-10T14:54:37.780Z,4.33
2018-12-10T14:59:41.994Z,4.27
2018-12-10T15:04:45.174Z,3.70
2018-12-10T15:09:48.262Z,3.77
2018-12-10T15:14:51.513Z,4.63
2018-12-10T15:19:54.660Z,3.73
2018-12-10T15:24:58.281Z,4.90
2018-12-10T15:30:01.455Z,3.77
2018-12-10T15:35:05.381Z,4.70
2018-12-10T15:40:08.530Z,4.67
2018-12-10T15:45:11.864Z,6.50
2018-12-10T15:50:15.147Z,4.43
2018-12-10T15:55:18.294Z,5.03
2018-12-10T16:00:21.515Z,4.93
2018-12-10T16:05:24.801Z,6.37
2018-12-10T16:10:28.028Z,9.33
2018-12-10T16:15:31.353Z,10.00
2018-12-10T16:20:34.530Z,6.00
2018-12-10T16:25:37.801Z,9.47
2018-12-10T16:30:41.142Z,6.07
2018-12-10T16:35:44.849Z,6.13
2018-12-10T16:40:48.057Z,6.87
2018-12-10T16:45:51.220Z,7.17
2018-12-10T16:50:54.571Z,5.10
2018-12-10T16:55:57.829Z,5.90
2018-12-10T17:01:01.030Z,16.47
2018-12-10T17:06:04.436Z,44.73
2018-12-10T17:11:07.721Z,67.03
2018-12-10T17:16:11.018Z,11.67
2018-12-10T17:21:14.361Z,13.97
2018-12-10T17:26:18.613Z,6.00
2018-12-10T17:31:21.925Z,5.57
2018-12-10T17:36:25.127Z,5.77
2018-12-10T17:41:28.500Z,6.10
2018-12-10T17:46:31.905Z,7.40
2018-12-10T17:51:35.165Z,7.50
2018-12-10T17:56:38.572Z,7.03
2018-12-10T18:01:41.969Z,10.03
2018-12-10T18:06:45.198Z,8.90
2018-12-10T18:11:48.444Z,9.63
2018-12-10T18:16:51.704Z,13.20
2018-12-10T18:21:54.938Z,7.97
2018-12-10T18:26:58.318Z,5.80
2018-12-10T18:32:01.618Z,7.00
2018-12-10T18:37:04.855Z,7.13
2018-12-10T18:42:08.290Z,6.03
2018-12-10T18:47:11.616Z,7.30
2018-12-10T18:52:14.891Z,5.00
2018-12-10T18:57:18.141Z,5.20
2018-12-10T19:02:21.386Z,5.53
2018-12-10T19:07:24.671Z,5.47
2018-12-10T19:12:28.274Z,5.63
2018-12-10T19:17:31.506Z,6.27
2018-12-10T19:27:50.596Z,6.83
2018-12-10T19:32:53.930Z,6.50
2018-12-10T19:37:57.153Z,6.50
2018-12-10T19:43:00.437Z,7.30
2018-12-10T19:48:03.779Z,6.17
2018-12-10T19:53:07.017Z,7.17
2018-12-10T19:58:10.288Z,9.23
2018-12-10T20:03:13.691Z,6.27
2018-12-10T20:08:17.020Z,6.87
2018-12-10T20:13:20.316Z,8.10
2018-12-10T20:18:23.673Z,8.57
2018-12-10T20:23:26.928Z,7.93
2018-12-10T20:28:30.260Z,7.27
2018-12-10T20:33:33.478Z,7.73
2018-12-10T20:38:36.829Z,7.27
2018-12-10T20:43:40.199Z,7.13
2018-12-10T20:48:43.480Z,6.70
2018-12-10T20:53:46.717Z,6.47
2018-12-10T20:58:49.949Z,5.87
2018-12-10T21:03:53.191Z,5.77
2018-12-10T21:08:56.470Z,5.90
2018-12-10T21:13:59.801Z,9.27
2018-12-10T21:19:03.095Z,6.43
2018-12-10T21:24:06.319Z,6.83
2018-12-10T21:29:09.681Z,6.30
2018-12-10T21:34:12.967Z,5.97
2018-12-10T21:39:16.157Z,6.03
2018-12-10T21:44:19.535Z,6.00
2018-12-10T21:49:22.766Z,6.37
2018-12-10T21:54:25.958Z,5.30
2018-12-10T21:59:29.173Z,7.60
2018-12-10T22:04:32.423Z,5.83
2018-12-10T22:09:35.668Z,4.30
2018-12-10T22:14:38.817Z,5.33
2018-12-10T22:19:41.997Z,6.17
2018-12-10T22:24:45.257Z,4.40
2018-12-10T22:29:48.521Z,3.80
2018-12-10T22:34:51.737Z,4.17
2018-12-10T22:39:54.949Z,4.67
2018-12-10T22:44:58.146Z,4.80
2018-12-10T22:55:15.109Z,4.90
2018-12-10T23:00:20.878Z,4.43
2018-12-10T23:05:24.093Z,5.57
2018-12-10T23:10:27.273Z,6.00
2018-12-10T23:15:30.436Z,6.00
2018-12-10T23:20:33.583Z,5.57
2018-12-10T23:25:36.721Z,5.90
2018-12-10T23:30:39.916Z,5.10
2018-12-10T23:35:43.027Z,5.03
2018-12-10T23:40:46.266Z,4.93
2018-12-10T23:45:49.468Z,5.10
2018-12-10T23:50:52.626Z,5.23
2018-12-10T23:55:55.768Z,4.50
